createdAt,value
2022-12-11T06:05:13.834Z,86.30
2022-12-11T06:10:17.572Z,86.70
2022-12-11T06:15:21.138Z,86.80
2022-12-11T06:20:26.176Z,86.80
2022-12-11T06:25:30.317Z,86.80
2022-12-11T06:30:38.840Z,86.80
2022-12-11T06:35:44.546Z,86.80
2022-12-11T06:40:55.386Z,86.80
2022-12-11T06:46:03.730Z,86.70
2022-12-11T06:51:10.445Z,86.90
2022-12-11T06:56:16.417Z,86.80
2022-12-11T07:01:21.859Z,87.20
2022-12-11T07:06:28.707Z,87.50
2022-12-11T07:11:32.355Z,87.50
2022-12-11T07:16:36.204Z,87.50
2022-12-11T07:21:41.191Z,87.40
2022-12-11T07:26:44.762Z,87.50
2022-12-11T07:31:48.388Z,87.40
2022-12-11T07:36:53.432Z,87.50
2022-12-11T07:41:56.983Z,87.00
2022-12-11T07:47:00.583Z,87.00
2022-12-11T07:52:06.109Z,87.80
2022-12-11T07:57:13.869Z,88.20
2022-12-11T08:02:18.168Z,88.00
2022-12-11T08:07:23.245Z,87.80
2022-12-11T08:12:26.828Z,87.80
2022-12-11T08:17:35.171Z,88.20
2022-12-11T08:22:43.709Z,88.40
2022-12-11T08:27:47.296Z,87.90
2022-12-11T08:32:50.937Z,88.70
2022-12-11T08:37:55.946Z,88.80
2022-12-11T08:42:59.599Z,88.90
2022-12-11T08:48:03.272Z,88.90
2022-12-11T08:53:08.248Z,89.40
2022-12-11T08:58:11.889Z,88.90
2022-12-11T09:03:15.569Z,88.70
2022-12-11T09:08:20.688Z,88.70
2022-12-11T09:13:24.297Z,88.60
2022-12-11T09:18:28.447Z,88.50
2022-12-11T09:23:33.312Z,88.50
2022-12-11T09:28:39.036Z,88.40
2022-12-11T09:33:46.828Z,88.50
2022-12-11T09:38:51.905Z,88.00
2022-12-11T09:44:04.634Z,87.90
2022-12-11T09:49:19.053Z,87.20
2022-12-11T09:54:24.213Z,87.50
2022-12-11T09:59:38.083Z,87.70
2022-12-11T10:04:50.557Z,87.10
2022-12-11T10:10:01.202Z,86.40
2022-12-11T10:15:17.909Z,86.30
2022-12-11T10:20:26.845Z,85.00
2022-12-11T10:25:37.958Z,92.60
2022-12-11T10:30:49.333Z,84.90
2022-12-11T10:35:54.315Z,84.60
2022-12-11T10:41:02.051Z,84.10
2022-12-11T10:46:07.624Z,83.00
2022-12-11T10:56:16.973Z,83.60
2022-12-11T11:01:24.332Z,84.90
2022-12-11T11:06:28.819Z,84.90
2022-12-11T11:11:37.260Z,86.00
2022-12-11T11:16:42.691Z,86.80
2022-12-11T11:21:51.859Z,84.40
2022-12-11T11:27:12.781Z,84.60
2022-12-11T11:32:21.400Z,85.40
2022-12-11T11:37:31.820Z,85.30
2022-12-11T11:42:44.227Z,86.30
2022-12-11T11:47:59.742Z,86.40
2022-12-11T11:53:07.298Z,87.50
2022-12-11T11:58:17.838Z,87.90
2022-12-11T12:03:24.148Z,86.90
2022-12-11T12:08:42.766Z,86.50
2022-12-11T12:13:58.009Z,86.90
2022-12-11T12:19:08.311Z,86.10
2022-12-11T12:24:23.406Z,85.90
2022-12-11T12:29:45.426Z,85.30
2022-12-11T12:35:02.734Z,84.40
2022-12-11T12:40:16.991Z,84.10
2022-12-11T12:45:29.885Z,84.50
2022-12-11T12:50:39.728Z,84.50
2022-12-11T13:00:48.794Z,83.80
2022-12-11T13:05:59.093Z,84.60
2022-12-11T13:11:06.147Z,85.00
2022-12-11T13:16:35.400Z,85.50
2022-12-11T13:21:39.666Z,84.30
2022-12-11T13:26:43.727Z,84.80
2022-12-11T13:31:59.156Z,84.40
2022-12-11T13:37:05.001Z,84.90
2022-12-11T13:42:20.005Z,85.00
2022-12-11T13:47:25.445Z,83.70
2022-12-11T13:52:29.159Z,84.10
2022-12-11T14:02:42.534Z,82.40
2022-12-11T14:07:50.732Z,82.50
2022-12-11T14:12:58.305Z,82.20
2022-12-11T14:18:04.466Z,82.20
2022-12-11T14:23:09.549Z,82.60
2022-12-11T14:28:18.083Z,82.90
2022-12-11T14:33:26.295Z,83.20
2022-12-11T14:38:34.680Z,83.30
2022-12-11T14:43:43.635Z,83.30
2022-12-11T14:48:59.128Z,83.40
2022-12-11T14:54:06.069Z,83.80
2022-12-11T14:59:25.494Z,83.60
2022-12-11T15:04:35.021Z,83.60
2022-12-11T15:09:40.838Z,84.00
2022-12-11T15:14:50.009Z,84.00
2022-12-11T15:19:57.808Z,84.10
2022-12-11T15:25:02.588Z,84.10
2022-12-11T15:30:28.257Z,84.30
2022-12-11T15:35:33.307Z,85.00
2022-12-11T15:40:36.896Z,84.80
2022-12-11T15:45:40.630Z,84.90
2022-12-11T15:50:45.791Z,85.10
2022-12-11T15:55:49.514Z,85.20
2022-12-11T16:00:53.426Z,85.00
2022-12-11T16:05:58.499Z,84.80
2022-12-11T16:11:02.122Z,85.20
2022-12-11T16:16:06.153Z,85.20
2022-12-11T16:21:11.186Z,85.30
2022-12-11T16:26:15.921Z,85.40
2022-12-11T16:31:19.613Z,85.30
2022-12-11T16:36:25.136Z,85.50
2022-12-11T16:41:28.816Z,85.80
2022-12-11T16:46:32.728Z,86.40
2022-12-11T16:51:37.714Z,86.90
2022-12-11T16:56:41.471Z,87.20
2022-12-11T17:01:45.457Z,87.50
2022-12-11T17:06:50.486Z,87.10
2022-12-11T17:11:55.429Z,87.70
2022-12-11T17:16:59.037Z,87.90
2022-12-11T17:22:04.625Z,87.90
2022-12-11T17:27:08.334Z,87.80
2022-12-11T17:32:11.927Z,87.70
2022-12-11T17:37:16.877Z,87.40
2022-12-11T17:42:20.497Z,87.60
2022-12-11T17:47:24.109Z,87.60
2022-12-11T17:52:33.980Z,87.50
2022-12-11T17:57:38.619Z,87.50
2022-12-11T18:02:42.194Z,87.60
2022-12-11T18:07:47.251Z,87.80
2022-12-11T18:12:50.897Z,88.10
2022-12-11T18:17:54.497Z,88.80
2022-12-11T18:23:00.299Z,89.40
2022-12-11T18:28:03.884Z,89.50
2022-12-11T18:33:07.568Z,89.50
2022-12-11T18:38:12.700Z,89.30
2022-12-11T18:43:16.322Z,89.20
2022-12-11T18:48:19.929Z,89.60
2022-12-11T18:53:24.915Z,89.80
2022-12-11T18:58:28.559Z,89.90
2022-12-11T19:03:32.201Z,90.10
2022-12-11T19:08:37.729Z,90.20
2022-12-11T19:13:41.359Z,90.20
2022-12-11T19:18:45.545Z,90.30
2022-12-11T19:23:50.326Z,90.50
2022-12-11T19:28:55.501Z,90.90
2022-12-11T19:33:59.561Z,91.10
2022-12-11T19:39:09.838Z,91.00
2022-12-11T19:44:16.403Z,90.70
2022-12-11T19:49:20.042Z,90.80
2022-12-11T19:54:26.845Z,90.60
2022-12-11T19:59:30.426Z,90.60
2022-12-11T20:09:39.354Z,95.20
2022-12-11T20:14:43.015Z,90.80
2022-12-11T20:19:46.628Z,90.80
2022-12-11T20:24:51.613Z,90.90
2022-12-11T20:34:59.284Z,90.70
2022-12-11T20:40:05.127Z,90.60
2022-12-11T20:45:09.922Z,90.30
2022-12-11T20:50:13.751Z,90.20
2022-12-11T20:55:18.747Z,90.50
2022-12-11T21:10:31.722Z,90.60
2022-12-11T21:15:36.976Z,90.90
2022-12-11T21:20:40.595Z,91.00
2022-12-11T21:25:45.569Z,91.00
2022-12-11T21:30:49.192Z,91.10
2022-12-11T21:35:56.302Z,91.00
2022-12-11T21:41:08.342Z,91.20
2022-12-11T21:46:13.860Z,91.00
2022-12-11T21:51:19.666Z,90.70
2022-12-11T21:56:28.155Z,90.80
2022-12-11T22:01:35.129Z,90.50
2022-12-11T22:06:40.239Z,90.70
2022-12-11T22:11:46.859Z,90.90
2022-12-11T22:21:54.437Z,91.00
2022-12-11T22:26:59.364Z,91.20
2022-12-11T22:32:03.324Z,91.00
2022-12-11T22:37:06.902Z,90.90
2022-12-11T22:42:11.900Z,90.90
2022-12-11T22:52:19.496Z,91.10
2022-12-11T22:57:24.472Z,91.50
2022-12-11T23:02:28.247Z,91.50
2022-12-11T23:07:32.025Z,91.40
2022-12-11T23:12:38.186Z,91.90
2022-12-11T23:17:41.796Z,92.00
2022-12-11T23:22:45.402Z,92.10
2022-12-11T23:27:50.366Z,91.90
